Time;durP1;ratioP1;P1;durP2;ratioP2;P2;SDS_P1;SDS_P2;PMS_P1;PMS_P2;Temp;Humidity;BMP_temperature;BMP_pressure;BME280_temperature;BME280_humidity;BME280_pressure;Samples;Min_cycle;Max_cycle;Signal;HPM_P1;HPM_P2
2022/07/08 00:01:08;;;;;;;;;;;15.40;99.90;;;;;;5071863;28;20357;-75
2022/07/08 00:03:34;;;;;;;;;;;15.40;99.90;;;;;;5070777;28;19909;-75
2022/07/08 00:05:59;;;;;;;;;;;15.40;99.90;;;;;;5071490;28;19912;-75
2022/07/08 00:08:27;;;;;;;;;;;15.40;99.90;;;;;;5071231;28;19958;-74
2022/07/08 00:10:52;;;;;;;;;;;15.40;99.90;;;;;;5071516;28;19962;-75
2022/07/08 00:13:18;;;;;;;;;;;15.30;99.90;;;;;;5070855;28;19909;-74
2022/07/08 00:15:43;;;;;;;;;;;15.30;99.90;;;;;;5071585;28;20275;-74
2022/07/08 00:18:09;;;;;;;;;;;15.20;99.90;;;;;;5071418;28;20361;-74
2022/07/08 00:20:35;;;;;;;;;;;15.20;99.90;;;;;;5071517;28;20083;-74
2022/07/08 00:23:00;;;;;;;;;;;15.00;99.90;;;;;;5070580;28;19953;-74
2022/07/08 00:25:26;;;;;;;;;;;14.70;99.90;;;;;;5071096;28;20281;-74
2022/07/08 00:27:51;;;;;;;;;;;14.60;99.90;;;;;;5071182;28;19966;-74
2022/07/08 00:30:17;;;;;;;;;;;14.60;99.90;;;;;;5071412;28;19909;-74
2022/07/08 00:32:42;;;;;;;;;;;14.60;99.90;;;;;;5070719;28;19908;-74
2022/07/08 00:35:08;;;;;;;;;;;14.50;99.90;;;;;;5070880;28;20003;-74
2022/07/08 00:37:33;;;;;;;;;;;14.50;99.90;;;;;;5070463;28;19916;-74
2022/07/08 00:39:59;;;;;;;;;;;14.40;99.90;;;;;;5071247;28;19908;-74
2022/07/08 00:42:25;;;;;;;;;;;14.30;99.90;;;;;;5070763;28;19908;-74
2022/07/08 00:44:50;;;;;;;;;;;14.30;99.90;;;;;;5070557;28;19915;-74
2022/07/08 00:47:16;;;;;;;;;;;14.20;99.90;;;;;;5070411;28;19916;-74
2022/07/08 00:49:41;;;;;;;;;;;14.10;99.90;;;;;;5070971;28;19920;-75
2022/07/08 00:52:07;;;;;;;;;;;13.90;99.90;;;;;;5070791;28;19909;-75
2022/07/08 00:54:33;;;;;;;;;;;13.80;99.90;;;;;;5070612;28;19909;-74
2022/07/08 00:56:59;;;;;;;;;;;13.70;99.90;;;;;;5070950;28;19908;-74
2022/07/08 00:59:26;;;;;;;;;;;13.70;99.90;;;;;;5071132;28;20293;-74
2022/07/08 01:01:51;;;;;;;;;;;13.50;99.90;;;;;;5069432;28;20280;-74
2022/07/08 01:04:17;;;;;;;;;;;13.40;99.90;;;;;;5069097;28;19913;-74
2022/07/08 01:06:43;;;;;;;;;;;13.50;99.90;;;;;;5067908;28;19912;-75
2022/07/08 01:09:09;;;;;;;;;;;13.50;99.90;;;;;;5070462;28;19931;-74
2022/07/08 01:11:34;;;;;;;;;;;13.40;99.90;;;;;;5070105;28;19970;-75
2022/07/08 01:14:00;;;;;;;;;;;13.30;99.90;;;;;;5070462;28;19908;-75
2022/07/08 01:16:26;;;;;;;;;;;13.10;99.90;;;;;;5070904;28;19970;-75
2022/07/08 01:18:51;;;;;;;;;;;13.00;99.90;;;;;;5070833;28;19909;-75
2022/07/08 01:21:16;;;;;;;;;;;12.80;99.90;;;;;;5065610;28;20404;-75
2022/07/08 01:23:42;;;;;;;;;;;12.80;99.90;;;;;;5069878;28;19916;-75
2022/07/08 01:26:09;;;;;;;;;;;12.70;99.90;;;;;;5070658;28;19920;-75
2022/07/08 01:28:35;;;;;;;;;;;12.60;99.90;;;;;;5071130;28;19909;-75
2022/07/08 01:31:02;;;;;;;;;;;12.60;99.90;;;;;;5070648;28;19948;-75
2022/07/08 01:33:28;;;;;;;;;;;12.70;99.90;;;;;;5069541;28;19912;-75
2022/07/08 01:35:53;;;;;;;;;;;12.50;99.90;;;;;;5070366;28;19913;-75
2022/07/08 01:38:19;;;;;;;;;;;12.30;99.90;;;;;;5070717;28;20309;-75
2022/07/08 01:40:44;;;;;;;;;;;12.40;99.90;;;;;;5070655;28;20494;-75
2022/07/08 01:43:10;;;;;;;;;;;12.40;99.90;;;;;;5069695;28;19908;-75
2022/07/08 01:45:35;;;;;;;;;;;12.30;99.90;;;;;;5070722;28;19908;-75
2022/07/08 01:48:01;;;;;;;;;;;12.20;99.90;;;;;;5070287;28;19919;-75
2022/07/08 01:50:26;;;;;;;;;;;12.20;99.90;;;;;;5064612;28;19999;-75
2022/07/08 01:52:52;;;;;;;;;;;12.10;99.90;;;;;;5069788;28;19909;-75
2022/07/08 01:55:17;;;;;;;;;;;12.10;99.90;;;;;;5069827;28;19909;-75
2022/07/08 01:57:43;;;;;;;;;;;12.00;99.90;;;;;;5070509;28;19919;-75
2022/07/08 02:00:09;;;;;;;;;;;12.20;99.90;;;;;;5071899;28;19912;-74
2022/07/08 02:02:34;;;;;;;;;;;12.20;99.90;;;;;;5073466;28;19909;-75
2022/07/08 02:05:00;;;;;;;;;;;12.30;99.90;;;;;;5073261;28;19918;-75
2022/07/08 02:07:25;;;;;;;;;;;12.30;99.90;;;;;;5073939;28;19934;-75
2022/07/08 02:09:50;;;;;;;;;;;12.20;99.90;;;;;;5072716;28;19918;-75
2022/07/08 02:12:19;;;;;;;;;;;12.00;99.90;;;;;;5073420;28;19909;-75
2022/07/08 02:14:48;;;;;;;;;;;11.90;99.90;;;;;;5073118;28;19909;-75
2022/07/08 02:17:14;;;;;;;;;;;11.80;99.90;;;;;;5073747;28;19939;-75
2022/07/08 02:19:40;;;;;;;;;;;11.90;99.90;;;;;;5072513;28;19916;-74
2022/07/08 02:22:06;;;;;;;;;;;12.00;99.90;;;;;;5072618;28;19908;-75
2022/07/08 02:24:32;;;;;;;;;;;11.80;99.90;;;;;;5073319;28;20358;-75
2022/07/08 02:26:57;;;;;;;;;;;11.90;99.90;;;;;;5072286;28;19966;-75
2022/07/08 02:29:22;;;;;;;;;;;11.80;99.90;;;;;;5073663;28;19908;-75
2022/07/08 02:31:48;;;;;;;;;;;11.60;99.90;;;;;;5073002;28;20412;-75
2022/07/08 02:34:14;;;;;;;;;;;11.50;99.90;;;;;;5073024;28;19952;-75
2022/07/08 02:36:39;;;;;;;;;;;11.40;99.90;;;;;;5073305;28;20376;-75
2022/07/08 02:39:05;;;;;;;;;;;11.40;99.90;;;;;;5073528;28;20379;-75
2022/07/08 02:41:30;;;;;;;;;;;11.60;99.90;;;;;;5072979;28;19915;-75
2022/07/08 02:43:56;;;;;;;;;;;11.70;99.90;;;;;;5072804;28;19934;-75
2022/07/08 02:46:21;;;;;;;;;;;11.60;99.90;;;;;;5073029;28;19916;-75
2022/07/08 02:48:47;;;;;;;;;;;11.70;99.90;;;;;;5073211;28;20010;-75
2022/07/08 02:51:12;;;;;;;;;;;11.60;99.90;;;;;;5068630;28;19916;-75
2022/07/08 02:53:38;;;;;;;;;;;11.60;99.90;;;;;;5071590;28;20149;-75
2022/07/08 02:56:03;;;;;;;;;;;11.50;99.90;;;;;;5072949;28;19912;-75
2022/07/08 02:58:29;;;;;;;;;;;11.40;99.90;;;;;;5073117;28;20285;-75
2022/07/08 03:00:54;;;;;;;;;;;11.40;99.90;;;;;;5071447;28;20285;-75
2022/07/08 03:03:20;;;;;;;;;;;11.40;99.90;;;;;;5071976;28;19908;-75
2022/07/08 03:05:45;;;;;;;;;;;11.40;99.90;;;;;;5072621;28;19999;-74
2022/07/08 03:08:11;;;;;;;;;;;11.30;99.90;;;;;;5072813;28;19920;-74
2022/07/08 03:10:36;;;;;;;;;;;11.10;99.90;;;;;;5071636;28;19908;-74
2022/07/08 03:13:02;;;;;;;;;;;11.10;99.90;;;;;;5072167;28;19908;-74
2022/07/08 03:15:27;;;;;;;;;;;11.10;99.90;;;;;;5071948;28;19912;-74
2022/07/08 03:17:53;;;;;;;;;;;11.00;99.90;;;;;;5072619;28;19995;-74
2022/07/08 03:20:18;;;;;;;;;;;10.90;99.90;;;;;;5066510;28;20381;-74
2022/07/08 03:22:44;;;;;;;;;;;10.90;99.90;;;;;;5070234;28;19912;-75
2022/07/08 03:25:09;;;;;;;;;;;10.90;99.90;;;;;;5070326;28;19913;-74
2022/07/08 03:27:35;;;;;;;;;;;10.70;99.90;;;;;;5072303;28;20007;-74
2022/07/08 03:30:00;;;;;;;;;;;10.70;99.90;;;;;;5070951;28;19955;-74
2022/07/08 03:32:26;;;;;;;;;;;10.70;99.90;;;;;;5071950;28;19913;-74
2022/07/08 03:34:52;;;;;;;;;;;10.60;99.90;;;;;;5071533;28;19908;-74
2022/07/08 03:37:18;;;;;;;;;;;10.50;99.90;;;;;;5071987;28;20290;-74
2022/07/08 03:39:43;;;;;;;;;;;10.40;99.90;;;;;;5072121;28;20289;-74
2022/07/08 03:42:09;;;;;;;;;;;10.30;99.90;;;;;;5071636;28;20350;-74
2022/07/08 03:44:34;;;;;;;;;;;10.10;99.90;;;;;;5071530;28;19909;-74
2022/07/08 03:47:00;;;;;;;;;;;10.20;99.90;;;;;;5071891;28;19981;-74
2022/07/08 03:49:26;;;;;;;;;;;10.80;99.90;;;;;;5072068;28;19909;-74
2022/07/08 03:51:51;;;;;;;;;;;11.10;99.90;;;;;;5070931;28;20262;-74
2022/07/08 03:54:17;;;;;;;;;;;11.00;99.90;;;;;;5071130;28;19909;-74
2022/07/08 03:56:42;;;;;;;;;;;10.90;99.90;;;;;;5071849;28;19954;-75
2022/07/08 03:59:08;;;;;;;;;;;10.90;99.90;;;;;;5067117;28;19915;-75
2022/07/08 04:01:33;;;;;;;;;;;10.80;99.90;;;;;;5071303;28;19912;-75
2022/07/08 04:03:59;;;;;;;;;;;10.90;99.90;;;;;;5071023;28;19916;-75
2022/07/08 04:06:24;;;;;;;;;;;11.20;99.90;;;;;;5071431;28;19999;-75
2022/07/08 04:08:49;;;;;;;;;;;11.10;99.90;;;;;;5071739;28;20335;-75
2022/07/08 04:11:15;;;;;;;;;;;11.30;99.90;;;;;;5071227;28;19908;-75
2022/07/08 04:13:40;;;;;;;;;;;11.40;99.90;;;;;;5070663;28;20310;-75
2022/07/08 04:16:11;;;;;;;;;;;11.40;99.90;;;;;;5072278;28;20389;-74
2022/07/08 04:18:37;;;;;;;;;;;11.40;99.90;;;;;;5073209;28;19908;-75
2022/07/08 04:21:03;;;;;;;;;;;11.30;99.90;;;;;;5071195;28;19916;-75
2022/07/08 04:23:28;;;;;;;;;;;11.30;99.90;;;;;;5069660;28;19916;-75
2022/07/08 04:25:54;;;;;;;;;;;11.20;99.90;;;;;;5071630;28;19913;-75
2022/07/08 04:28:19;;;;;;;;;;;11.10;99.90;;;;;;5071531;28;19909;-75
2022/07/08 04:30:45;;;;;;;;;;;11.20;99.90;;;;;;5072314;28;20015;-74
2022/07/08 04:33:10;;;;;;;;;;;11.20;99.90;;;;;;5070559;28;19914;-75
2022/07/08 04:35:36;;;;;;;;;;;11.10;99.90;;;;;;5071608;28;20021;-74
2022/07/08 04:38:02;;;;;;;;;;;11.00;99.90;;;;;;5072996;28;19912;-74
2022/07/08 04:40:28;;;;;;;;;;;11.00;99.90;;;;;;5072684;28;19999;-75
2022/07/08 04:42:53;;;;;;;;;;;11.10;99.90;;;;;;5071954;28;19913;-75
2022/07/08 04:45:19;;;;;;;;;;;11.30;99.90;;;;;;5071287;28;19909;-76
2022/07/08 04:47:46;;;;;;;;;;;11.40;99.90;;;;;;5072095;28;19952;-74
2022/07/08 04:50:11;;;;;;;;;;;11.40;99.90;;;;;;5072908;28;20520;-75
2022/07/08 04:52:37;;;;;;;;;;;11.40;99.90;;;;;;5069733;28;19915;-75
2022/07/08 04:55:03;;;;;;;;;;;11.50;99.90;;;;;;5071337;28;19909;-75
2022/07/08 04:57:32;;;;;;;;;;;11.60;99.90;;;;;;5071410;28;19915;-75
2022/07/08 04:59:58;;;;;;;;;;;11.70;99.90;;;;;;5071345;28;20091;-75
2022/07/08 05:02:24;;;;;;;;;;;11.80;99.90;;;;;;5071761;28;19957;-76
2022/07/08 05:04:49;;;;;;;;;;;11.80;99.90;;;;;;5070591;28;19908;-76
2022/07/08 05:07:15;;;;;;;;;;;11.80;99.90;;;;;;5069706;28;19913;-75
2022/07/08 05:09:40;;;;;;;;;;;11.90;99.90;;;;;;5071213;28;19908;-75
2022/07/08 05:12:06;;;;;;;;;;;11.90;99.90;;;;;;5070545;28;19940;-75
2022/07/08 05:14:32;;;;;;;;;;;11.90;99.90;;;;;;5070972;28;20445;-75
2022/07/08 05:16:57;;;;;;;;;;;12.00;99.90;;;;;;5073900;28;19980;-74
2022/07/08 05:19:22;;;;;;;;;;;12.10;99.90;;;;;;5074145;28;19912;-75
2022/07/08 05:21:48;;;;;;;;;;;12.20;99.90;;;;;;5071053;28;19916;-74
2022/07/08 05:24:14;;;;;;;;;;;12.20;99.90;;;;;;5071036;28;19921;-75
2022/07/08 05:26:39;;;;;;;;;;;12.20;99.90;;;;;;5071992;28;19912;-76
2022/07/08 05:29:05;;;;;;;;;;;12.30;99.90;;;;;;5072139;28;19991;-76
2022/07/08 05:31:30;;;;;;;;;;;12.30;99.90;;;;;;5070977;28;19909;-76
2022/07/08 05:33:56;;;;;;;;;;;12.30;99.90;;;;;;5072248;28;19908;-76
2022/07/08 05:36:22;;;;;;;;;;;12.30;99.90;;;;;;5074664;28;20379;-76
2022/07/08 05:38:47;;;;;;;;;;;12.40;99.90;;;;;;5074756;28;19912;-76
2022/07/08 05:41:13;;;;;;;;;;;12.50;99.90;;;;;;5074345;28;19908;-75
2022/07/08 05:43:39;;;;;;;;;;;12.50;99.90;;;;;;5074417;28;20010;-74
2022/07/08 05:46:04;;;;;;;;;;;12.60;99.90;;;;;;5075880;28;19966;-75
2022/07/08 05:48:30;;;;;;;;;;;12.70;99.90;;;;;;5076763;28;19921;-75
2022/07/08 05:50:55;;;;;;;;;;;12.70;99.90;;;;;;5075437;28;20362;-75
2022/07/08 05:53:21;;;;;;;;;;;12.50;99.90;;;;;;5074526;28;19909;-75
2022/07/08 05:55:46;;;;;;;;;;;12.40;99.90;;;;;;5074249;28;20527;-75
2022/07/08 05:58:12;;;;;;;;;;;12.90;99.90;;;;;;5072845;28;19916;-75
2022/07/08 06:00:37;;;;;;;;;;;14.20;99.90;;;;;;5074117;28;19915;-75
2022/07/08 06:03:05;;;;;;;;;;;14.30;99.90;;;;;;5073104;28;19920;-75
2022/07/08 06:05:31;;;;;;;;;;;15.30;99.90;;;;;;5061374;28;19963;-76
2022/07/08 06:07:57;;;;;;;;;;;15.90;99.90;;;;;;5058552;28;19970;-75
2022/07/08 06:10:22;;;;;;;;;;;16.60;99.90;;;;;;5055528;28;20299;-76
2022/07/08 06:12:49;;;;;;;;;;;16.60;99.80;;;;;;5054013;28;19948;-75
2022/07/08 06:15:14;;;;;;;;;;;16.10;99.90;;;;;;5056222;28;20004;-75
2022/07/08 06:17:40;;;;;;;;;;;15.00;99.90;;;;;;5052570;28;19999;-75
2022/07/08 06:20:06;;;;;;;;;;;14.70;99.90;;;;;;5060198;28;19915;-75
2022/07/08 06:22:33;;;;;;;;;;;15.70;99.90;;;;;;5073058;28;19908;-76
2022/07/08 06:24:59;;;;;;;;;;;15.70;99.90;;;;;;5072877;28;19921;-75
2022/07/08 06:27:25;;;;;;;;;;;15.00;99.90;;;;;;5072178;28;20285;-75
2022/07/08 06:29:50;;;;;;;;;;;15.70;99.90;;;;;;5073332;28;19995;-75
2022/07/08 06:32:16;;;;;;;;;;;16.70;99.40;;;;;;5071312;28;20357;-76
2022/07/08 06:34:41;;;;;;;;;;;16.70;98.80;;;;;;5070278;28;19912;-75
2022/07/08 06:37:07;;;;;;;;;;;16.60;99.90;;;;;;5072159;28;19909;-75
2022/07/08 06:39:33;;;;;;;;;;;16.50;99.80;;;;;;5073259;28;20366;-76
2022/07/08 06:41:58;;;;;;;;;;;16.50;98.80;;;;;;5070224;28;19908;-75
2022/07/08 06:44:23;;;;;;;;;;;16.80;97.60;;;;;;5070500;28;19913;-76
2022/07/08 06:46:49;;;;;;;;;;;16.00;98.00;;;;;;5069518;28;19916;-76
2022/07/08 06:49:14;;;;;;;;;;;17.20;97.10;;;;;;5067164;28;20055;-76
2022/07/08 06:51:40;;;;;;;;;;;17.90;96.40;;;;;;5071911;28;20583;-76
2022/07/08 06:56:50;;;;;;;;;;;18.30;96.20;;;;;;5070347;28;19961;-76
2022/07/08 06:59:15;;;;;;;;;;;17.70;94.10;;;;;;5071906;28;20003;-75
2022/07/08 07:01:41;;;;;;;;;;;16.60;98.00;;;;;;5071502;28;19908;-75
2022/07/08 07:04:07;;;;;;;;;;;15.80;96.80;;;;;;5070514;28;19916;-75
2022/07/08 07:06:33;;;;;;;;;;;15.20;97.40;;;;;;5071164;28;19912;-75
2022/07/08 07:08:58;;;;;;;;;;;15.00;99.10;;;;;;5068499;28;19919;-76
2022/07/08 07:11:24;;;;;;;;;;;15.30;97.20;;;;;;5068548;28;19912;-77
2022/07/08 07:13:49;;;;;;;;;;;15.30;96.50;;;;;;5070644;28;19948;-77
2022/07/08 07:16:15;;;;;;;;;;;16.90;95.10;;;;;;5071660;28;20395;-77
2022/07/08 07:18:41;;;;;;;;;;;18.70;91.20;;;;;;5067498;28;19912;-77
2022/07/08 07:21:06;;;;;;;;;;;18.30;92.20;;;;;;5069857;28;19954;-77
2022/07/08 07:23:32;;;;;;;;;;;18.30;93.40;;;;;;5066298;28;19928;-77
2022/07/08 07:25:57;;;;;;;;;;;18.80;93.40;;;;;;5070309;28;19913;-77
2022/07/08 07:28:23;;;;;;;;;;;18.80;91.60;;;;;;5070816;28;19912;-77
2022/07/08 07:30:49;;;;;;;;;;;19.00;91.10;;;;;;5063722;28;19912;-78
2022/07/08 07:33:14;;;;;;;;;;;19.40;91.30;;;;;;5065756;28;19912;-77
2022/07/08 07:35:40;;;;;;;;;;;20.20;88.40;;;;;;5064271;28;19908;-76
2022/07/08 07:38:05;;;;;;;;;;;18.80;90.60;;;;;;5064570;28;19952;-75
2022/07/08 07:40:31;;;;;;;;;;;18.60;92.60;;;;;;5072274;28;19933;-76
2022/07/08 07:42:56;;;;;;;;;;;18.00;93.00;;;;;;5072043;28;19909;-76
2022/07/08 07:45:22;;;;;;;;;;;18.30;91.60;;;;;;5065940;28;19920;-76
2022/07/08 07:47:47;;;;;;;;;;;19.20;91.50;;;;;;5071243;28;19912;-76
2022/07/08 07:50:13;;;;;;;;;;;18.70;91.00;;;;;;5069903;28;20381;-76
2022/07/08 07:52:38;;;;;;;;;;;18.00;90.50;;;;;;5062294;28;20273;-76
2022/07/08 07:55:05;;;;;;;;;;;19.60;92.40;;;;;;5067945;28;20357;-76
2022/07/08 07:57:31;;;;;;;;;;;20.60;90.70;;;;;;5065026;28;19920;-75
2022/07/08 07:59:56;;;;;;;;;;;21.80;87.60;;;;;;5070993;28;19908;-75
2022/07/08 08:02:22;;;;;;;;;;;22.40;87.70;;;;;;5068574;28;19915;-75
2022/07/08 08:04:47;;;;;;;;;;;23.00;80.10;;;;;;5063368;28;19909;-75
2022/07/08 08:07:13;;;;;;;;;;;23.60;78.20;;;;;;5069528;28;19916;-75
2022/07/08 08:09:38;;;;;;;;;;;23.40;77.40;;;;;;5070112;28;19909;-75
2022/07/08 08:12:04;;;;;;;;;;;23.60;74.80;;;;;;5070786;28;19912;-75
2022/07/08 08:14:29;;;;;;;;;;;23.80;74.00;;;;;;5070597;28;19916;-75
2022/07/08 08:16:55;;;;;;;;;;;23.00;80.40;;;;;;5069648;28;20003;-75
2022/07/08 08:19:20;;;;;;;;;;;20.30;80.90;;;;;;5071222;28;19908;-76
2022/07/08 08:21:46;;;;;;;;;;;20.10;86.50;;;;;;5062748;28;20001;-76
2022/07/08 08:24:11;;;;;;;;;;;20.00;81.80;;;;;;5069568;28;20295;-76
2022/07/08 08:26:37;;;;;;;;;;;20.50;82.00;;;;;;5069630;28;19966;-76
2022/07/08 08:29:02;;;;;;;;;;;19.80;87.40;;;;;;5071404;28;19909;-76
2022/07/08 08:31:28;;;;;;;;;;;20.30;87.20;;;;;;5070425;28;19967;-76
2022/07/08 08:33:54;;;;;;;;;;;22.30;83.50;;;;;;5070401;28;19913;-76
2022/07/08 08:36:19;;;;;;;;;;;22.50;81.20;;;;;;5070451;28;19908;-77
2022/07/08 08:38:46;;;;;;;;;;;20.60;82.10;;;;;;5070788;28;19908;-77
2022/07/08 08:41:12;;;;;;;;;;;22.40;84.90;;;;;;5071014;28;19916;-77
2022/07/08 08:43:38;;;;;;;;;;;23.20;81.10;;;;;;5070303;28;19908;-77
2022/07/08 08:46:04;;;;;;;;;;;21.50;75.90;;;;;;5068519;28;19913;-76
2022/07/08 08:48:34;;;;;;;;;;;20.50;80.70;;;;;;5075294;28;19916;-76
2022/07/08 08:51:02;;;;;;;;;;;20.20;82.90;;;;;;5068675;28;20053;-76
2022/07/08 08:53:30;;;;;;;;;;;20.10;86.20;;;;;;5069625;28;19958;-76
2022/07/08 08:55:56;;;;;;;;;;;18.20;84.40;;;;;;5070793;28;19909;-76
2022/07/08 08:58:22;;;;;;;;;;;17.50;85.80;;;;;;5069081;28;19944;-75
2022/07/08 09:00:47;;;;;;;;;;;19.80;82.90;;;;;;5069188;28;19955;-75
2022/07/08 09:03:13;;;;;;;;;;;21.70;86.40;;;;;;5067970;28;19909;-76
2022/07/08 09:05:38;;;;;;;;;;;24.40;78.50;;;;;;5070566;28;19913;-76
2022/07/08 09:08:04;;;;;;;;;;;24.70;73.20;;;;;;5069869;28;19921;-75
2022/07/08 09:10:30;;;;;;;;;;;24.60;74.10;;;;;;5075200;28;20288;-76
2022/07/08 09:12:59;;;;;;;;;;;24.50;72.50;;;;;;5076627;28;19944;-76
2022/07/08 09:15:45;;;;;;;;;;;24.20;66.80;;;;;;5070780;28;20401;-76
2022/07/08 09:18:15;;;;;;;;;;;23.30;73.10;;;;;;5073529;28;19916;-76
2022/07/08 09:20:40;;;;;;;;;;;21.30;73.80;;;;;;5074680;28;19954;-76
2022/07/08 09:23:13;;;;;;;;;;;20.00;84.50;;;;;;5073274;28;19952;-76
2022/07/08 09:25:39;;;;;;;;;;;21.40;76.10;;;;;;5080035;28;19947;-76
2022/07/08 09:28:05;;;;;;;;;;;22.00;80.50;;;;;;5073933;28;19963;-76
2022/07/08 09:30:30;;;;;;;;;;;23.20;73.80;;;;;;5073837;28;19916;-76
2022/07/08 09:33:00;;;;;;;;;;;24.30;74.90;;;;;;5072677;28;19920;-76
2022/07/08 09:35:36;;;;;;;;;;;25.10;71.30;;;;;;5073268;28;19962;-76
2022/07/08 09:38:03;;;;;;;;;;;24.50;66.80;;;;;;5073759;28;19913;-76
2022/07/08 09:40:29;;;;;;;;;;;23.80;69.50;;;;;;5074169;28;19908;-76
2022/07/08 09:42:54;;;;;;;;;;;24.20;72.20;;;;;;5073662;28;19913;-75
2022/07/08 09:45:26;;;;;;;;;;;22.80;72.10;;;;;;5071622;28;19908;-76
2022/07/08 09:47:52;;;;;;;;;;;21.70;76.20;;;;;;5073366;28;20004;-76
2022/07/08 09:50:17;;;;;;;;;;;22.70;73.90;;;;;;5074093;28;20341;-76
2022/07/08 09:52:43;;;;;;;;;;;23.30;68.80;;;;;;5072483;28;19920;-76
2022/07/08 09:55:08;;;;;;;;;;;22.90;73.50;;;;;;5073549;28;19958;-76
2022/07/08 09:57:34;;;;;;;;;;;23.40;76.30;;;;;;5073305;28;20020;-76
2022/07/08 10:00:00;;;;;;;;;;;24.00;70.30;;;;;;5072645;28;19959;-76
2022/07/08 10:02:27;;;;;;;;;;;23.80;69.90;;;;;;5069668;28;20387;-76
2022/07/08 10:04:54;;;;;;;;;;;23.60;74.60;;;;;;5073597;28;19909;-77
2022/07/08 10:07:20;;;;;;;;;;;23.60;67.90;;;;;;5073702;28;19912;-76
2022/07/08 10:09:45;;;;;;;;;;;23.50;70.60;;;;;;5069060;28;19953;-76
2022/07/08 10:12:11;;;;;;;;;;;23.40;69.60;;;;;;5074428;28;19931;-76
2022/07/08 10:14:37;;;;;;;;;;;22.60;72.30;;;;;;5072639;28;19912;-76
2022/07/08 10:17:06;;;;;;;;;;;24.10;73.30;;;;;;5070659;28;19916;-76
2022/07/08 10:19:34;;;;;;;;;;;24.20;66.30;;;;;;5072859;28;20353;-76
2022/07/08 10:22:01;;;;;;;;;;;24.20;69.20;;;;;;5071225;28;19954;-77
2022/07/08 10:24:30;;;;;;;;;;;23.40;65.40;;;;;;5072196;28;19920;-77
2022/07/08 10:27:01;;;;;;;;;;;24.60;70.60;;;;;;5073627;28;20400;-77
2022/07/08 10:29:29;;;;;;;;;;;24.30;69.00;;;;;;5070029;28;19909;-77
2022/07/08 10:31:58;;;;;;;;;;;25.10;70.90;;;;;;5069297;28;20230;-76
2022/07/08 10:34:33;;;;;;;;;;;23.00;65.00;;;;;;5072616;28;19987;-77
2022/07/08 10:37:00;;;;;;;;;;;23.00;75.20;;;;;;5073105;28;19908;-77
2022/07/08 10:39:28;;;;;;;;;;;23.90;67.20;;;;;;5072393;28;20038;-76
2022/07/08 10:41:55;;;;;;;;;;;23.80;72.30;;;;;;5072587;28;19919;-76
2022/07/08 10:44:41;;;;;;;;;;;23.90;73.00;;;;;;5070700;28;19915;-76
2022/07/08 10:47:09;;;;;;;;;;;22.90;72.10;;;;;;5070308;28;20003;-76
2022/07/08 10:49:41;;;;;;;;;;;23.00;65.90;;;;;;5072277;28;19948;-76
2022/07/08 10:52:07;;;;;;;;;;;23.40;72.80;;;;;;5072841;28;19908;-76
2022/07/08 10:54:36;;;;;;;;;;;24.20;67.60;;;;;;5072113;28;19986;-76
2022/07/08 10:57:06;;;;;;;;;;;21.70;71.00;;;;;;5072925;28;19908;-75
2022/07/08 10:59:33;;;;;;;;;;;21.10;70.30;;;;;;5070382;28;19908;-75
2022/07/08 11:02:04;;;;;;;;;;;20.30;73.80;;;;;;5072414;28;19919;-75
2022/07/08 11:04:33;;;;;;;;;;;20.10;74.50;;;;;;5071852;28;19909;-76
2022/07/08 11:07:32;;;;;;;;;;;22.70;71.20;;;;;;5072605;28;19913;-77
2022/07/08 11:10:11;;;;;;;;;;;22.20;73.00;;;;;;5061665;28;20265;-76
2022/07/08 11:12:41;;;;;;;;;;;23.30;69.50;;;;;;5071700;28;19912;-76
2022/07/08 11:15:09;;;;;;;;;;;23.10;70.20;;;;;;5069746;28;20003;-76
2022/07/08 11:17:36;;;;;;;;;;;22.40;69.50;;;;;;5071566;28;20312;-75
2022/07/08 11:20:13;;;;;;;;;;;22.40;71.20;;;;;;5073203;28;19912;-77
2022/07/08 11:22:39;;;;;;;;;;;23.60;74.40;;;;;;5070456;28;19951;-77
2022/07/08 11:25:05;;;;;;;;;;;23.20;69.40;;;;;;5071694;28;20532;-77
2022/07/08 11:27:33;;;;;;;;;;;23.70;67.00;;;;;;5070529;28;20266;-77
2022/07/08 11:29:59;;;;;;;;;;;22.70;68.20;;;;;;5069308;28;19915;-77
2022/07/08 11:32:25;;;;;;;;;;;23.90;72.50;;;;;;5070774;28;19916;-77
2022/07/08 11:34:50;;;;;;;;;;;24.10;68.90;;;;;;5071166;28;19966;-77
2022/07/08 11:37:16;;;;;;;;;;;22.50;70.80;;;;;;5071538;28;19916;-76
2022/07/08 11:39:42;;;;;;;;;;;23.10;70.10;;;;;;5076310;28;19958;-75
2022/07/08 11:42:09;;;;;;;;;;;22.50;68.90;;;;;;5077382;28;20507;-78
2022/07/08 11:44:34;;;;;;;;;;;23.00;63.80;;;;;;5071237;28;19965;-77
2022/07/08 11:47:00;;;;;;;;;;;22.60;67.50;;;;;;5068828;28;20007;-77
2022/07/08 11:49:26;;;;;;;;;;;23.30;70.90;;;;;;5071296;28;19999;-77
2022/07/08 11:51:52;;;;;;;;;;;22.70;70.30;;;;;;5070161;28;19908;-77
2022/07/08 11:54:19;;;;;;;;;;;24.10;69.80;;;;;;5070640;28;19991;-77
2022/07/08 11:56:45;;;;;;;;;;;24.40;64.20;;;;;;5071879;28;19912;-76
2022/07/08 11:59:10;;;;;;;;;;;23.70;64.00;;;;;;5071816;28;19966;-76
2022/07/08 12:01:36;;;;;;;;;;;23.40;75.80;;;;;;5069895;28;19912;-74
2022/07/08 12:04:08;;;;;;;;;;;23.00;75.60;;;;;;5073875;28;19909;-74
2022/07/08 12:06:34;;;;;;;;;;;23.70;66.50;;;;;;5071369;28;19919;-76
2022/07/08 12:09:09;;;;;;;;;;;24.40;67.30;;;;;;5069989;28;19917;-76
2022/07/08 12:11:41;;;;;;;;;;;23.60;65.90;;;;;;5078442;28;19924;-76
2022/07/08 12:14:08;;;;;;;;;;;24.20;67.40;;;;;;5070948;28;19912;-74
2022/07/08 12:16:43;;;;;;;;;;;23.30;64.70;;;;;;5070868;28;19908;-74
2022/07/08 12:19:24;;;;;;;;;;;23.90;67.90;;;;;;5071998;28;20374;-74
2022/07/08 12:21:50;;;;;;;;;;;24.40;66.80;;;;;;5065253;28;19909;-75
2022/07/08 12:24:15;;;;;;;;;;;23.80;64.10;;;;;;5074674;28;19969;-75
2022/07/08 12:26:53;;;;;;;;;;;23.90;66.90;;;;;;5069453;28;20365;-75
2022/07/08 12:29:19;;;;;;;;;;;23.40;64.10;;;;;;5070911;28;19908;-75
2022/07/08 12:31:44;;;;;;;;;;;23.40;67.30;;;;;;5069418;28;19912;-75
2022/07/08 12:34:14;;;;;;;;;;;23.80;70.40;;;;;;5070244;28;20324;-76
2022/07/08 12:36:40;;;;;;;;;;;25.00;63.00;;;;;;5070859;28;19916;-75
2022/07/08 12:39:16;;;;;;;;;;;26.70;60.80;;;;;;5071014;28;19909;-75
2022/07/08 12:41:43;;;;;;;;;;;29.30;60.60;;;;;;5068243;28;19908;-76
2022/07/08 12:44:29;;;;;;;;;;;30.40;55.00;;;;;;5068956;28;19908;-76
2022/07/08 12:46:56;;;;;;;;;;;27.90;53.00;;;;;;5061801;28;19977;-75
2022/07/08 12:49:25;;;;;;;;;;;28.70;57.60;;;;;;5070848;28;20369;-75
2022/07/08 12:51:51;;;;;;;;;;;30.90;55.70;;;;;;5069965;28;19908;-75
2022/07/08 12:54:17;;;;;;;;;;;30.20;51.60;;;;;;5069625;28;19920;-75
2022/07/08 12:56:43;;;;;;;;;;;30.50;50.50;;;;;;5069574;28;19913;-75
2022/07/08 12:59:08;;;;;;;;;;;30.40;47.60;;;;;;5071004;28;19915;-76
2022/07/08 13:01:35;;;;;;;;;;;30.00;50.40;;;;;;5066448;28;19962;-76
2022/07/08 13:04:01;;;;;;;;;;;30.60;49.40;;;;;;5069679;28;19913;-76
2022/07/08 13:06:27;;;;;;;;;;;29.80;52.70;;;;;;5070769;28;19916;-76
2022/07/08 13:08:52;;;;;;;;;;;30.90;51.90;;;;;;5068918;28;20327;-76
2022/07/08 13:11:18;;;;;;;;;;;30.50;49.80;;;;;;5069556;28;20360;-77
2022/07/08 13:13:43;;;;;;;;;;;30.90;53.30;;;;;;5069657;28;20369;-76
2022/07/08 13:16:09;;;;;;;;;;;30.00;47.00;;;;;;5067467;28;19912;-75
2022/07/08 13:18:34;;;;;;;;;;;27.30;52.80;;;;;;5070547;28;19920;-75
2022/07/08 13:21:00;;;;;;;;;;;27.40;55.60;;;;;;5070482;28;20342;-80
2022/07/08 13:23:25;;;;;;;;;;;29.90;53.50;;;;;;5067824;28;19916;-79
2022/07/08 13:25:52;;;;;;;;;;;30.70;50.30;;;;;;5069162;28;19909;-79
2022/07/08 13:28:18;;;;;;;;;;;31.00;47.20;;;;;;5068684;28;20011;-78
2022/07/08 13:30:43;;;;;;;;;;;30.20;46.10;;;;;;5076750;28;19958;-78
2022/07/08 13:33:09;;;;;;;;;;;31.40;53.20;;;;;;5074667;28;19913;-78
2022/07/08 13:35:34;;;;;;;;;;;31.20;51.30;;;;;;5075766;28;20003;-79
2022/07/08 13:38:00;;;;;;;;;;;30.60;50.70;;;;;;5076142;28;20001;-78
2022/07/08 13:40:25;;;;;;;;;;;31.10;47.50;;;;;;5075988;28;19909;-79
2022/07/08 13:42:51;;;;;;;;;;;30.70;46.90;;;;;;5069805;28;19908;-79
2022/07/08 13:45:16;;;;;;;;;;;30.70;49.50;;;;;;5072726;28;19922;-80
2022/07/08 13:47:42;;;;;;;;;;;31.70;46.60;;;;;;5075342;28;20325;-79
2022/07/08 13:50:07;;;;;;;;;;;32.20;48.30;;;;;;5071163;28;19930;-80
2022/07/08 13:52:33;;;;;;;;;;;32.10;47.50;;;;;;5069871;28;19914;-79
2022/07/08 13:54:58;;;;;;;;;;;32.00;47.60;;;;;;5071705;28;20384;-79
2022/07/08 13:57:24;;;;;;;;;;;32.20;48.30;;;;;;5075641;28;20305;-79
2022/07/08 13:59:49;;;;;;;;;;;31.40;46.70;;;;;;5074108;28;19999;-76
2022/07/08 14:02:17;;;;;;;;;;;30.70;48.30;;;;;;5071765;28;20033;-79
2022/07/08 14:04:42;;;;;;;;;;;30.00;48.80;;;;;;5073382;28;19953;-77
2022/07/08 14:07:08;;;;;;;;;;;29.90;48.80;;;;;;5073936;28;19920;-76
2022/07/08 14:09:33;;;;;;;;;;;29.20;46.80;;;;;;5069230;28;19916;-77
2022/07/08 14:11:59;;;;;;;;;;;30.50;48.20;;;;;;5071381;28;19923;-77
2022/07/08 14:14:24;;;;;;;;;;;30.20;47.60;;;;;;5073292;28;19921;-76